Kennewick, Washington
Current Conditions -  °F | °C
As of 9:53 AM on Thursday 27 Nov 2014 (Local Time) from KPSC Reporting Station
Overcast Overcast  
Wind Chill: 58°   Ceiling: 7500
Heat Index: 58°   Visibility: 10mi
Dew Point: 46°   Wind: 13mph
Humidity: 65%   Direction: 220°SW
Pressure: 29.92"   Gusts: NA
Location:  46.21°N, 119.11°W
Report Text: KPSC 271753Z 22011KT 10SM OVC075 14/08 A2992 RMK AO2 SLP134 T01440078 10144 20022 50000
Loading
Personal Weather Stations






























Interactive Weather Map New forecast layout! Learn more

10-Day Weather Forecast

Advertisements
Track Severe Weather on mobile